sensor_id;sensor_type;location;lat;lon;timestamp;P1;durP1;ratioP1;P2;durP2;ratioP2
21941;SDS011;11135;54.192;15.670;2023-07-29T00:02:57;12.10;;;8.38;;
21941;SDS011;11135;54.192;15.670;2023-07-29T00:06:03;11.60;;;8.63;;
21941;SDS011;11135;54.192;15.670;2023-07-29T00:09:09;10.75;;;7.63;;
21941;SDS011;11135;54.192;15.670;2023-07-29T00:12:17;12.88;;;8.30;;
21941;SDS011;11135;54.192;15.670;2023-07-29T00:15:24;10.68;;;8.80;;
21941;SDS011;11135;54.192;15.670;2023-07-29T00:18:32;10.48;;;8.57;;
21941;SDS011;11135;54.192;15.670;2023-07-29T00:21:38;11.00;;;9.35;;
21941;SDS011;11135;54.192;15.670;2023-07-29T00:24:51;15.30;;;9.10;;
21941;SDS011;11135;54.192;15.670;2023-07-29T00:27:58;14.32;;;9.32;;
21941;SDS011;11135;54.192;15.670;2023-07-29T00:31:03;13.48;;;9.95;;
21941;SDS011;11135;54.192;15.670;2023-07-29T00:34:12;12.35;;;9.63;;
21941;SDS011;11135;54.192;15.670;2023-07-29T00:37:21;14.15;;;9.45;;
21941;SDS011;11135;54.192;15.670;2023-07-29T00:40:27;18.38;;;10.20;;
21941;SDS011;11135;54.192;15.670;2023-07-29T00:43:33;13.65;;;10.68;;
21941;SDS011;11135;54.192;15.670;2023-07-29T00:46:50;15.20;;;9.88;;
21941;SDS011;11135;54.192;15.670;2023-07-29T00:50:02;16.23;;;10.60;;
21941;SDS011;11135;54.192;15.670;2023-07-29T00:53:09;13.05;;;9.60;;
21941;SDS011;11135;54.192;15.670;2023-07-29T00:56:14;12.27;;;9.60;;
21941;SDS011;11135;54.192;15.670;2023-07-29T00:59:20;13.02;;;10.15;;
21941;SDS011;11135;54.192;15.670;2023-07-29T01:02:25;15.98;;;9.85;;
21941;SDS011;11135;54.192;15.670;2023-07-29T01:05:36;13.10;;;9.80;;
21941;SDS011;11135;54.192;15.670;2023-07-29T01:08:49;11.73;;;9.00;;
21941;SDS011;11135;54.192;15.670;2023-07-29T01:11:58;11.45;;;9.15;;
21941;SDS011;11135;54.192;15.670;2023-07-29T01:15:09;13.00;;;9.40;;
21941;SDS011;11135;54.192;15.670;2023-07-29T01:18:22;13.80;;;9.40;;
21941;SDS011;11135;54.192;15.670;2023-07-29T01:21:30;11.73;;;8.85;;
21941;SDS011;11135;54.192;15.670;2023-07-29T01:24:41;13.73;;;9.20;;
21941;SDS011;11135;54.192;15.670;2023-07-29T01:27:48;11.45;;;9.52;;
21941;SDS011;11135;54.192;15.670;2023-07-29T01:30:57;12.20;;;9.05;;
21941;SDS011;11135;54.192;15.670;2023-07-29T01:34:09;14.05;;;9.40;;
21941;SDS011;11135;54.192;15.670;2023-07-29T01:37:24;11.43;;;8.00;;
21941;SDS011;11135;54.192;15.670;2023-07-29T01:40:35;11.75;;;9.10;;
21941;SDS011;11135;54.192;15.670;2023-07-29T01:43:44;11.77;;;8.98;;
21941;SDS011;11135;54.192;15.670;2023-07-29T01:46:50;11.88;;;9.38;;
21941;SDS011;11135;54.192;15.670;2023-07-29T01:49:58;12.05;;;8.80;;
21941;SDS011;11135;54.192;15.670;2023-07-29T01:53:03;9.18;;;7.95;;
21941;SDS011;11135;54.192;15.670;2023-07-29T01:56:11;11.80;;;8.20;;
21941;SDS011;11135;54.192;15.670;2023-07-29T01:59:17;12.23;;;8.13;;
21941;SDS011;11135;54.192;15.670;2023-07-29T02:02:22;11.27;;;8.13;;
21941;SDS011;11135;54.192;15.670;2023-07-29T02:05:28;11.30;;;8.95;;
21941;SDS011;11135;54.192;15.670;2023-07-29T02:08:40;13.75;;;8.55;;
21941;SDS011;11135;54.192;15.670;2023-07-29T02:11:48;9.98;;;7.13;;
21941;SDS011;11135;54.192;15.670;2023-07-29T02:14:56;12.40;;;7.88;;
21941;SDS011;11135;54.192;15.670;2023-07-29T02:18:05;9.82;;;7.90;;
21941;SDS011;11135;54.192;15.670;2023-07-29T02:21:13;9.45;;;8.50;;
21941;SDS011;11135;54.192;15.670;2023-07-29T02:24:19;9.68;;;8.07;;
21941;SDS011;11135;54.192;15.670;2023-07-29T02:27:27;11.57;;;8.35;;
21941;SDS011;11135;54.192;15.670;2023-07-29T02:30:36;10.55;;;8.00;;
21941;SDS011;11135;54.192;15.670;2023-07-29T02:33:41;9.63;;;8.05;;
21941;SDS011;11135;54.192;15.670;2023-07-29T02:36:47;9.95;;;7.18;;
21941;SDS011;11135;54.192;15.670;2023-07-29T02:39:53;10.35;;;7.57;;
21941;SDS011;11135;54.192;15.670;2023-07-29T02:43:01;10.80;;;7.63;;
21941;SDS011;11135;54.192;15.670;2023-07-29T02:46:08;8.93;;;7.72;;
21941;SDS011;11135;54.192;15.670;2023-07-29T02:49:13;9.77;;;7.50;;
21941;SDS011;11135;54.192;15.670;2023-07-29T02:52:20;11.45;;;7.78;;
21941;SDS011;11135;54.192;15.670;2023-07-29T02:55:26;9.88;;;7.57;;
21941;SDS011;11135;54.192;15.670;2023-07-29T02:58:35;12.05;;;7.70;;
21941;SDS011;11135;54.192;15.670;2023-07-29T03:01:41;9.35;;;7.70;;
21941;SDS011;11135;54.192;15.670;2023-07-29T03:04:50;8.05;;;7.25;;
21941;SDS011;11135;54.192;15.670;2023-07-29T03:07:57;10.13;;;7.57;;
21941;SDS011;11135;54.192;15.670;2023-07-29T03:11:07;8.98;;;7.03;;
21941;SDS011;11135;54.192;15.670;2023-07-29T03:14:15;9.90;;;7.82;;
21941;SDS011;11135;54.192;15.670;2023-07-29T03:17:21;9.02;;;7.22;;
21941;SDS011;11135;54.192;15.670;2023-07-29T03:20:26;8.82;;;6.45;;
21941;SDS011;11135;54.192;15.670;2023-07-29T03:23:32;10.48;;;7.20;;
21941;SDS011;11135;54.192;15.670;2023-07-29T03:26:37;11.60;;;7.25;;
21941;SDS011;11135;54.192;15.670;2023-07-29T03:29:50;9.57;;;7.30;;
21941;SDS011;11135;54.192;15.670;2023-07-29T03:32:58;8.68;;;7.10;;
21941;SDS011;11135;54.192;15.670;2023-07-29T03:36:04;9.35;;;8.35;;
21941;SDS011;11135;54.192;15.670;2023-07-29T03:39:09;9.52;;;6.32;;
21941;SDS011;11135;54.192;15.670;2023-07-29T03:42:15;9.63;;;8.15;;
21941;SDS011;11135;54.192;15.670;2023-07-29T03:45:23;9.40;;;7.45;;
21941;SDS011;11135;54.192;15.670;2023-07-29T03:48:30;9.55;;;7.53;;
21941;SDS011;11135;54.192;15.670;2023-07-29T03:51:35;11.35;;;7.45;;
21941;SDS011;11135;54.192;15.670;2023-07-29T03:54:43;10.43;;;7.47;;
21941;SDS011;11135;54.192;15.670;2023-07-29T03:57:49;9.48;;;8.48;;
21941;SDS011;11135;54.192;15.670;2023-07-29T04:00:57;13.00;;;6.93;;
21941;SDS011;11135;54.192;15.670;2023-07-29T04:04:04;9.27;;;7.20;;
21941;SDS011;11135;54.192;15.670;2023-07-29T04:07:10;10.00;;;7.88;;
21941;SDS011;11135;54.192;15.670;2023-07-29T04:10:15;11.27;;;7.72;;
21941;SDS011;11135;54.192;15.670;2023-07-29T04:13:21;11.30;;;7.88;;
21941;SDS011;11135;54.192;15.670;2023-07-29T04:16:30;8.77;;;7.72;;
21941;SDS011;11135;54.192;15.670;2023-07-29T04:22:44;8.45;;;6.80;;
21941;SDS011;11135;54.192;15.670;2023-07-29T04:25:49;8.95;;;7.05;;
21941;SDS011;11135;54.192;15.670;2023-07-29T04:28:54;7.30;;;6.60;;
21941;SDS011;11135;54.192;15.670;2023-07-29T04:32:04;9.00;;;6.05;;
21941;SDS011;11135;54.192;15.670;2023-07-29T04:35:09;10.63;;;6.82;;
21941;SDS011;11135;54.192;15.670;2023-07-29T04:38:17;9.32;;;6.35;;
21941;SDS011;11135;54.192;15.670;2023-07-29T04:41:22;9.05;;;5.75;;
21941;SDS011;11135;54.192;15.670;2023-07-29T04:44:28;9.95;;;7.22;;
21941;SDS011;11135;54.192;15.670;2023-07-29T04:47:38;8.10;;;5.80;;
21941;SDS011;11135;54.192;15.670;2023-07-29T04:50:45;6.28;;;5.63;;
21941;SDS011;11135;54.192;15.670;2023-07-29T04:53:51;7.00;;;6.15;;
21941;SDS011;11135;54.192;15.670;2023-07-29T04:56:56;7.40;;;5.90;;
21941;SDS011;11135;54.192;15.670;2023-07-29T05:00:02;8.15;;;5.88;;
21941;SDS011;11135;54.192;15.670;2023-07-29T05:03:10;6.82;;;5.22;;
21941;SDS011;11135;54.192;15.670;2023-07-29T05:06:17;7.90;;;4.90;;
21941;SDS011;11135;54.192;15.670;2023-07-29T05:09:23;7.53;;;6.30;;
21941;SDS011;11135;54.192;15.670;2023-07-29T05:12:29;6.05;;;5.22;;
21941;SDS011;11135;54.192;15.670;2023-07-29T05:15:38;7.63;;;5.63;;
21941;SDS011;11135;54.192;15.670;2023-07-29T05:18:48;8.05;;;5.55;;
21941;SDS011;11135;54.192;15.670;2023-07-29T05:21:53;8.07;;;5.30;;
21941;SDS011;11135;54.192;15.670;2023-07-29T05:24:59;6.30;;;5.25;;
21941;SDS011;11135;54.192;15.670;2023-07-29T05:28:06;9.95;;;5.47;;
21941;SDS011;11135;54.192;15.670;2023-07-29T05:31:11;6.57;;;5.25;;
21941;SDS011;11135;54.192;15.670;2023-07-29T05:34:19;6.80;;;5.18;;
21941;SDS011;11135;54.192;15.670;2023-07-29T05:37:32;6.32;;;5.00;;
21941;SDS011;11135;54.192;15.670;2023-07-29T05:40:37;6.28;;;4.88;;
21941;SDS011;11135;54.192;15.670;2023-07-29T05:43:43;5.95;;;4.68;;
21941;SDS011;11135;54.192;15.670;2023-07-29T05:46:50;7.53;;;4.65;;
21941;SDS011;11135;54.192;15.670;2023-07-29T05:49:58;6.82;;;4.47;;
21941;SDS011;11135;54.192;15.670;2023-07-29T05:53:07;6.65;;;4.20;;
21941;SDS011;11135;54.192;15.670;2023-07-29T05:56:12;7.75;;;4.47;;
21941;SDS011;11135;54.192;15.670;2023-07-29T05:59:18;7.00;;;3.95;;
21941;SDS011;11135;54.192;15.670;2023-07-29T06:02:23;4.85;;;3.90;;
21941;SDS011;11135;54.192;15.670;2023-07-29T06:05:31;5.20;;;4.05;;
21941;SDS011;11135;54.192;15.670;2023-07-29T06:08:36;6.43;;;4.03;;
21941;SDS011;11135;54.192;15.670;2023-07-29T06:11:42;4.07;;;3.20;;
21941;SDS011;11135;54.192;15.670;2023-07-29T06:14:47;5.40;;;3.88;;
21941;SDS011;11135;54.192;15.670;2023-07-29T06:17:53;5.63;;;3.75;;
21941;SDS011;11135;54.192;15.670;2023-07-29T06:21:01;4.72;;;3.58;;
21941;SDS011;11135;54.192;15.670;2023-07-29T06:24:10;4.68;;;3.17;;
21941;SDS011;11135;54.192;15.670;2023-07-29T06:27:15;4.53;;;3.45;;
21941;SDS011;11135;54.192;15.670;2023-07-29T06:30:25;5.22;;;3.00;;
21941;SDS011;11135;54.192;15.670;2023-07-29T06:33:31;10.27;;;3.17;;
21941;SDS011;11135;54.192;15.670;2023-07-29T06:36:39;5.03;;;3.42;;
21941;SDS011;11135;54.192;15.670;2023-07-29T06:39:49;4.28;;;3.08;;
21941;SDS011;11135;54.192;15.670;2023-07-29T06:42:54;5.28;;;3.15;;
21941;SDS011;11135;54.192;15.670;2023-07-29T06:45:59;4.85;;;2.85;;
21941;SDS011;11135;54.192;15.670;2023-07-29T06:49:05;8.65;;;3.10;;
21941;SDS011;11135;54.192;15.670;2023-07-29T06:52:16;3.15;;;2.75;;
21941;SDS011;11135;54.192;15.670;2023-07-29T06:55:25;5.32;;;2.70;;
21941;SDS011;11135;54.192;15.670;2023-07-29T06:58:30;4.57;;;2.80;;
21941;SDS011;11135;54.192;15.670;2023-07-29T07:01:36;4.47;;;2.38;;
21941;SDS011;11135;54.192;15.670;2023-07-29T07:04:41;3.67;;;2.35;;
21941;SDS011;11135;54.192;15.670;2023-07-29T07:07:50;4.97;;;2.60;;
21941;SDS011;11135;54.192;15.670;2023-07-29T07:10:55;3.50;;;2.50;;
21941;SDS011;11135;54.192;15.670;2023-07-29T07:14:01;3.97;;;2.53;;
21941;SDS011;11135;54.192;15.670;2023-07-29T07:17:06;3.88;;;2.28;;
21941;SDS011;11135;54.192;15.670;2023-07-29T07:20:15;5.55;;;2.50;;
21941;SDS011;11135;54.192;15.670;2023-07-29T07:23:23;4.75;;;2.58;;
21941;SDS011;11135;54.192;15.670;2023-07-29T07:26:29;3.28;;;2.35;;
21941;SDS011;11135;54.192;15.670;2023-07-29T07:29:36;5.20;;;2.20;;
21941;SDS011;11135;54.192;15.670;2023-07-29T07:32:45;3.00;;;2.08;;
21941;SDS011;11135;54.192;15.670;2023-07-29T07:35:54;3.58;;;2.17;;
21941;SDS011;11135;54.192;15.670;2023-07-29T07:39:04;2.63;;;2.10;;
21941;SDS011;11135;54.192;15.670;2023-07-29T07:42:12;2.80;;;2.05;;
21941;SDS011;11135;54.192;15.670;2023-07-29T07:45:20;2.92;;;2.33;;
21941;SDS011;11135;54.192;15.670;2023-07-29T07:48:26;2.28;;;1.88;;
21941;SDS011;11135;54.192;15.670;2023-07-29T07:51:33;3.33;;;2.00;;
21941;SDS011;11135;54.192;15.670;2023-07-29T07:54:42;4.53;;;2.08;;
21941;SDS011;11135;54.192;15.670;2023-07-29T07:57:47;2.90;;;1.95;;
21941;SDS011;11135;54.192;15.670;2023-07-29T08:01:00;2.55;;;2.03;;
21941;SDS011;11135;54.192;15.670;2023-07-29T08:04:06;3.88;;;2.30;;
21941;SDS011;11135;54.192;15.670;2023-07-29T08:07:12;3.25;;;2.30;;
21941;SDS011;11135;54.192;15.670;2023-07-29T08:10:21;3.40;;;2.67;;
21941;SDS011;11135;54.192;15.670;2023-07-29T08:13:27;2.85;;;2.47;;
21941;SDS011;11135;54.192;15.670;2023-07-29T08:16:34;3.40;;;2.35;;
21941;SDS011;11135;54.192;15.670;2023-07-29T08:19:42;4.20;;;2.72;;
21941;SDS011;11135;54.192;15.670;2023-07-29T08:22:53;3.42;;;2.40;;
21941;SDS011;11135;54.192;15.670;2023-07-29T08:26:02;3.08;;;2.22;;
21941;SDS011;11135;54.192;15.670;2023-07-29T08:29:09;3.83;;;2.67;;
21941;SDS011;11135;54.192;15.670;2023-07-29T08:32:17;3.63;;;2.53;;
21941;SDS011;11135;54.192;15.670;2023-07-29T08:35:29;3.20;;;2.70;;
21941;SDS011;11135;54.192;15.670;2023-07-29T08:38:35;4.35;;;2.42;;
21941;SDS011;11135;54.192;15.670;2023-07-29T08:41:48;3.70;;;2.83;;
21941;SDS011;11135;54.192;15.670;2023-07-29T08:44:55;3.25;;;2.45;;
21941;SDS011;11135;54.192;15.670;2023-07-29T08:48:02;2.85;;;2.30;;
21941;SDS011;11135;54.192;15.670;2023-07-29T08:51:08;4.70;;;3.08;;
21941;SDS011;11135;54.192;15.670;2023-07-29T08:54:15;6.22;;;3.47;;
21941;SDS011;11135;54.192;15.670;2023-07-29T08:57:26;4.60;;;3.03;;
21941;SDS011;11135;54.192;15.670;2023-07-29T09:00:32;4.47;;;2.90;;
21941;SDS011;11135;54.192;15.670;2023-07-29T09:03:37;5.85;;;2.92;;
21941;SDS011;11135;54.192;15.670;2023-07-29T09:06:46;4.38;;;3.53;;
21941;SDS011;11135;54.192;15.670;2023-07-29T09:09:52;3.45;;;2.90;;
21941;SDS011;11135;54.192;15.670;2023-07-29T09:13:02;3.65;;;2.85;;
21941;SDS011;11135;54.192;15.670;2023-07-29T09:16:08;3.65;;;3.20;;
21941;SDS011;11135;54.192;15.670;2023-07-29T09:19:14;4.03;;;3.13;;
21941;SDS011;11135;54.192;15.670;2023-07-29T09:22:22;5.03;;;3.10;;
21941;SDS011;11135;54.192;15.670;2023-07-29T09:25:29;3.78;;;3.30;;
21941;SDS011;11135;54.192;15.670;2023-07-29T09:28:39;4.55;;;2.60;;
21941;SDS011;11135;54.192;15.670;2023-07-29T09:31:45;3.42;;;2.70;;
21941;SDS011;11135;54.192;15.670;2023-07-29T09:34:50;3.60;;;2.85;;
21941;SDS011;11135;54.192;15.670;2023-07-29T09:37:56;4.15;;;2.78;;
21941;SDS011;11135;54.192;15.670;2023-07-29T09:41:01;3.72;;;2.22;;
21941;SDS011;11135;54.192;15.670;2023-07-29T09:44:10;2.75;;;2.15;;
21941;SDS011;11135;54.192;15.670;2023-07-29T09:47:20;6.45;;;2.33;;
21941;SDS011;11135;54.192;15.670;2023-07-29T09:50:27;3.00;;;2.05;;
21941;SDS011;11135;54.192;15.670;2023-07-29T09:53:32;2.42;;;1.83;;
21941;SDS011;11135;54.192;15.670;2023-07-29T09:56:39;2.47;;;2.20;;
21941;SDS011;11135;54.192;15.670;2023-07-29T09:59:55;3.22;;;2.42;;
21941;SDS011;11135;54.192;15.670;2023-07-29T10:03:01;2.50;;;2.30;;
21941;SDS011;11135;54.192;15.670;2023-07-29T10:06:07;2.70;;;2.20;;
21941;SDS011;11135;54.192;15.670;2023-07-29T10:09:17;2.47;;;2.00;;
21941;SDS011;11135;54.192;15.670;2023-07-29T10:12:24;3.85;;;2.20;;
21941;SDS011;11135;54.192;15.670;2023-07-29T10:15:33;2.70;;;2.00;;
21941;SDS011;11135;54.192;15.670;2023-07-29T10:18:39;2.70;;;2.15;;
21941;SDS011;11135;54.192;15.670;2023-07-29T10:21:46;2.70;;;2.30;;
21941;SDS011;11135;54.192;15.670;2023-07-29T10:24:53;3.63;;;2.30;;
21941;SDS011;11135;54.192;15.670;2023-07-29T10:28:00;3.47;;;2.00;;
21941;SDS011;11135;54.192;15.670;2023-07-29T10:31:14;2.50;;;2.10;;
21941;SDS011;11135;54.192;15.670;2023-07-29T10:34:21;3.72;;;2.30;;
21941;SDS011;11135;54.192;15.670;2023-07-29T10:37:26;3.30;;;1.98;;
21941;SDS011;11135;54.192;15.670;2023-07-29T10:40:44;2.28;;;1.90;;
21941;SDS011;11135;54.192;15.670;2023-07-29T10:43:57;4.88;;;2.20;;
21941;SDS011;11135;54.192;15.670;2023-07-29T10:47:13;2.45;;;2.05;;
21941;SDS011;11135;54.192;15.670;2023-07-29T10:50:21;2.42;;;2.08;;
21941;SDS011;11135;54.192;15.670;2023-07-29T10:53:29;4.28;;;2.42;;
21941;SDS011;11135;54.192;15.670;2023-07-29T10:56:36;2.80;;;2.25;;
21941;SDS011;11135;54.192;15.670;2023-07-29T10:59:53;2.78;;;2.00;;
21941;SDS011;11135;54.192;15.670;2023-07-29T11:03:02;3.58;;;2.30;;
21941;SDS011;11135;54.192;15.670;2023-07-29T11:06:08;3.55;;;2.10;;
21941;SDS011;11135;54.192;15.670;2023-07-29T11:12:39;2.78;;;2.45;;
21941;SDS011;11135;54.192;15.670;2023-07-29T11:15:48;3.28;;;2.05;;
21941;SDS011;11135;54.192;15.670;2023-07-29T11:19:01;3.65;;;2.38;;
21941;SDS011;11135;54.192;15.670;2023-07-29T11:22:09;3.17;;;2.78;;
21941;SDS011;11135;54.192;15.670;2023-07-29T11:25:17;2.33;;;2.05;;
21941;SDS011;11135;54.192;15.670;2023-07-29T11:28:24;3.55;;;2.08;;
21941;SDS011;11135;54.192;15.670;2023-07-29T11:31:40;3.00;;;2.17;;
21941;SDS011;11135;54.192;15.670;2023-07-29T11:34:48;3.10;;;2.20;;
21941;SDS011;11135;54.192;15.670;2023-07-29T11:37:54;3.47;;;1.92;;
21941;SDS011;11135;54.192;15.670;2023-07-29T11:41:02;2.20;;;1.98;;
21941;SDS011;11135;54.192;15.670;2023-07-29T11:44:10;3.28;;;2.10;;
21941;SDS011;11135;54.192;15.670;2023-07-29T11:47:24;2.40;;;2.10;;
21941;SDS011;11135;54.192;15.670;2023-07-29T11:50:34;2.10;;;1.77;;
21941;SDS011;11135;54.192;15.670;2023-07-29T11:53:40;3.35;;;2.20;;
21941;SDS011;11135;54.192;15.670;2023-07-29T11:56:47;3.25;;;2.33;;
21941;SDS011;11135;54.192;15.670;2023-07-29T11:59:53;3.33;;;2.15;;
21941;SDS011;11135;54.192;15.670;2023-07-29T12:03:01;2.45;;;1.90;;
21941;SDS011;11135;54.192;15.670;2023-07-29T12:06:10;2.95;;;2.38;;
21941;SDS011;11135;54.192;15.670;2023-07-29T12:09:20;3.28;;;2.03;;
21941;SDS011;11135;54.192;15.670;2023-07-29T12:12:25;3.22;;;2.03;;
21941;SDS011;11135;54.192;15.670;2023-07-29T12:15:31;2.25;;;1.83;;
21941;SDS011;11135;54.192;15.670;2023-07-29T12:18:44;3.58;;;2.33;;
21941;SDS011;11135;54.192;15.670;2023-07-29T12:21:57;3.45;;;2.25;;
21941;SDS011;11135;54.192;15.670;2023-07-29T12:25:07;3.58;;;2.38;;
21941;SDS011;11135;54.192;15.670;2023-07-29T12:28:13;2.67;;;2.13;;
21941;SDS011;11135;54.192;15.670;2023-07-29T12:31:19;3.38;;;2.60;;
21941;SDS011;11135;54.192;15.670;2023-07-29T12:34:25;3.13;;;2.08;;
21941;SDS011;11135;54.192;15.670;2023-07-29T12:37:35;2.60;;;2.13;;
21941;SDS011;11135;54.192;15.670;2023-07-29T12:40:41;3.35;;;2.60;;
21941;SDS011;11135;54.192;15.670;2023-07-29T12:43:48;4.35;;;2.63;;
21941;SDS011;11135;54.192;15.670;2023-07-29T12:47:09;4.32;;;2.40;;
21941;SDS011;11135;54.192;15.670;2023-07-29T12:50:18;4.30;;;2.43;;
21941;SDS011;11135;54.192;15.670;2023-07-29T12:53:26;3.15;;;2.15;;
21941;SDS011;11135;54.192;15.670;2023-07-29T12:56:35;3.17;;;2.58;;
21941;SDS011;11135;54.192;15.670;2023-07-29T12:59:50;3.65;;;2.30;;
21941;SDS011;11135;54.192;15.670;2023-07-29T13:02:57;5.47;;;2.50;;
21941;SDS011;11135;54.192;15.670;2023-07-29T13:06:06;3.60;;;2.40;;
21941;SDS011;11135;54.192;15.670;2023-07-29T13:09:14;3.75;;;2.42;;
21941;SDS011;11135;54.192;15.670;2023-07-29T13:12:20;3.15;;;2.50;;
21941;SDS011;11135;54.192;15.670;2023-07-29T13:15:30;3.42;;;2.25;;
21941;SDS011;11135;54.192;15.670;2023-07-29T13:18:39;4.03;;;2.38;;
21941;SDS011;11135;54.192;15.670;2023-07-29T13:21:49;3.47;;;2.85;;
21941;SDS011;11135;54.192;15.670;2023-07-29T13:25:00;3.08;;;2.42;;
21941;SDS011;11135;54.192;15.670;2023-07-29T13:28:09;4.90;;;2.53;;
21941;SDS011;11135;54.192;15.670;2023-07-29T13:31:15;3.45;;;2.78;;
21941;SDS011;11135;54.192;15.670;2023-07-29T13:34:24;3.67;;;2.55;;
21941;SDS011;11135;54.192;15.670;2023-07-29T13:37:30;3.17;;;2.60;;
21941;SDS011;11135;54.192;15.670;2023-07-29T13:40:38;3.40;;;2.42;;
21941;SDS011;11135;54.192;15.670;2023-07-29T13:43:44;5.93;;;2.70;;
21941;SDS011;11135;54.192;15.670;2023-07-29T13:46:52;4.45;;;3.08;;
21941;SDS011;11135;54.192;15.670;2023-07-29T13:49:57;3.53;;;2.85;;
21941;SDS011;11135;54.192;15.670;2023-07-29T13:53:03;5.70;;;3.13;;
21941;SDS011;11135;54.192;15.670;2023-07-29T13:56:12;5.55;;;3.08;;
21941;SDS011;11135;54.192;15.670;2023-07-29T13:59:18;5.85;;;3.30;;
21941;SDS011;11135;54.192;15.670;2023-07-29T14:02:25;7.70;;;3.63;;
21941;SDS011;11135;54.192;15.670;2023-07-29T14:05:33;13.65;;;4.28;;
21941;SDS011;11135;54.192;15.670;2023-07-29T14:08:39;12.90;;;3.50;;
21941;SDS011;11135;54.192;15.670;2023-07-29T14:11:50;26.63;;;5.22;;
21941;SDS011;11135;54.192;15.670;2023-07-29T14:14:56;10.82;;;3.30;;
21941;SDS011;11135;54.192;15.670;2023-07-29T14:18:03;14.82;;;3.30;;
21941;SDS011;11135;54.192;15.670;2023-07-29T14:21:08;18.75;;;4.82;;
21941;SDS011;11135;54.192;15.670;2023-07-29T14:24:14;14.32;;;3.55;;
21941;SDS011;11135;54.192;15.670;2023-07-29T14:27:24;9.80;;;2.50;;
21941;SDS011;11135;54.192;15.670;2023-07-29T14:30:30;11.25;;;2.45;;
21941;SDS011;11135;54.192;15.670;2023-07-29T14:33:36;14.60;;;2.63;;
21941;SDS011;11135;54.192;15.670;2023-07-29T14:36:41;12.75;;;2.90;;
21941;SDS011;11135;54.192;15.670;2023-07-29T14:39:49;18.27;;;4.07;;
21941;SDS011;11135;54.192;15.670;2023-07-29T14:42:58;23.00;;;4.93;;
21941;SDS011;11135;54.192;15.670;2023-07-29T14:46:03;22.13;;;4.40;;
21941;SDS011;11135;54.192;15.670;2023-07-29T14:49:09;24.25;;;6.10;;
21941;SDS011;11135;54.192;15.670;2023-07-29T14:52:16;29.15;;;4.80;;
21941;SDS011;11135;54.192;15.670;2023-07-29T14:55:23;29.65;;;5.25;;
21941;SDS011;11135;54.192;15.670;2023-07-29T14:58:31;24.70;;;4.90;;
21941;SDS011;11135;54.192;15.670;2023-07-29T15:01:44;25.55;;;5.25;;
21941;SDS011;11135;54.192;15.670;2023-07-29T15:04:54;16.33;;;3.63;;
21941;SDS011;11135;54.192;15.670;2023-07-29T15:08:01;20.80;;;4.32;;
21941;SDS011;11135;54.192;15.670;2023-07-29T15:11:13;19.42;;;4.75;;
21941;SDS011;11135;54.192;15.670;2023-07-29T15:14:25;27.85;;;5.70;;
21941;SDS011;11135;54.192;15.670;2023-07-29T15:17:32;17.65;;;4.40;;
21941;SDS011;11135;54.192;15.670;2023-07-29T15:20:40;16.70;;;4.18;;
21941;SDS011;11135;54.192;15.670;2023-07-29T15:23:48;19.17;;;5.28;;
21941;SDS011;11135;54.192;15.670;2023-07-29T15:26:59;22.83;;;4.63;;
21941;SDS011;11135;54.192;15.670;2023-07-29T15:30:10;15.27;;;4.53;;
21941;SDS011;11135;54.192;15.670;2023-07-29T15:33:15;20.73;;;5.45;;
21941;SDS011;11135;54.192;15.670;2023-07-29T15:36:28;15.57;;;3.75;;
21941;SDS011;11135;54.192;15.670;2023-07-29T15:39:37;19.85;;;4.20;;
21941;SDS011;11135;54.192;15.670;2023-07-29T15:42:46;18.08;;;4.10;;
21941;SDS011;11135;54.192;15.670;2023-07-29T15:45:54;18.45;;;5.25;;
21941;SDS011;11135;54.192;15.670;2023-07-29T15:48:59;18.33;;;4.30;;
21941;SDS011;11135;54.192;15.670;2023-07-29T15:52:10;10.18;;;3.28;;
21941;SDS011;11135;54.192;15.670;2023-07-29T15:55:17;10.98;;;2.72;;
21941;SDS011;11135;54.192;15.670;2023-07-29T15:58:22;10.60;;;3.25;;
21941;SDS011;11135;54.192;15.670;2023-07-29T16:01:32;14.02;;;3.35;;
21941;SDS011;11135;54.192;15.670;2023-07-29T16:04:38;11.00;;;2.60;;
21941;SDS011;11135;54.192;15.670;2023-07-29T16:07:45;15.70;;;3.10;;
21941;SDS011;11135;54.192;15.670;2023-07-29T16:10:55;14.65;;;3.40;;
21941;SDS011;11135;54.192;15.670;2023-07-29T16:14:09;8.57;;;2.72;;
21941;SDS011;11135;54.192;15.670;2023-07-29T16:17:20;12.88;;;3.47;;
21941;SDS011;11135;54.192;15.670;2023-07-29T16:20:26;16.77;;;4.35;;
21941;SDS011;11135;54.192;15.670;2023-07-29T16:23:33;12.48;;;3.25;;
21941;SDS011;11135;54.192;15.670;2023-07-29T16:26:42;11.38;;;3.58;;
21941;SDS011;11135;54.192;15.670;2023-07-29T16:29:51;19.02;;;3.95;;
21941;SDS011;11135;54.192;15.670;2023-07-29T16:32:59;15.68;;;4.47;;
21941;SDS011;11135;54.192;15.670;2023-07-29T16:36:10;12.45;;;3.55;;
21941;SDS011;11135;54.192;15.670;2023-07-29T16:39:15;12.93;;;3.88;;
21941;SDS011;11135;54.192;15.670;2023-07-29T16:42:20;8.25;;;3.20;;
21941;SDS011;11135;54.192;15.670;2023-07-29T16:45:26;10.40;;;3.88;;
21941;SDS011;11135;54.192;15.670;2023-07-29T16:48:42;12.45;;;4.38;;
21941;SDS011;11135;54.192;15.670;2023-07-29T16:51:49;12.73;;;4.38;;
21941;SDS011;11135;54.192;15.670;2023-07-29T16:54:54;7.75;;;3.60;;
21941;SDS011;11135;54.192;15.670;2023-07-29T16:58:01;10.20;;;4.20;;
21941;SDS011;11135;54.192;15.670;2023-07-29T17:01:07;12.70;;;5.70;;
21941;SDS011;11135;54.192;15.670;2023-07-29T17:04:17;9.82;;;3.70;;
21941;SDS011;11135;54.192;15.670;2023-07-29T17:07:24;10.57;;;3.85;;
21941;SDS011;11135;54.192;15.670;2023-07-29T17:10:30;8.82;;;3.70;;
21941;SDS011;11135;54.192;15.670;2023-07-29T17:13:35;6.22;;;3.13;;
21941;SDS011;11135;54.192;15.670;2023-07-29T17:16:41;9.27;;;3.35;;
21941;SDS011;11135;54.192;15.670;2023-07-29T17:19:48;8.75;;;3.80;;
21941;SDS011;11135;54.192;15.670;2023-07-29T17:26:03;6.88;;;2.92;;
21941;SDS011;11135;54.192;15.670;2023-07-29T17:29:11;8.82;;;3.20;;
21941;SDS011;11135;54.192;15.670;2023-07-29T17:32:16;7.07;;;3.30;;
21941;SDS011;11135;54.192;15.670;2023-07-29T17:35:28;7.80;;;3.38;;
21941;SDS011;11135;54.192;15.670;2023-07-29T17:38:33;7.82;;;3.10;;
21941;SDS011;11135;54.192;15.670;2023-07-29T17:41:42;5.85;;;2.53;;
21941;SDS011;11135;54.192;15.670;2023-07-29T17:44:47;5.30;;;3.03;;
21941;SDS011;11135;54.192;15.670;2023-07-29T17:47:52;4.68;;;3.05;;
21941;SDS011;11135;54.192;15.670;2023-07-29T17:51:00;6.32;;;3.20;;
21941;SDS011;11135;54.192;15.670;2023-07-29T17:54:07;5.15;;;3.22;;
21941;SDS011;11135;54.192;15.670;2023-07-29T17:57:12;6.32;;;3.17;;
21941;SDS011;11135;54.192;15.670;2023-07-29T18:00:18;6.10;;;3.40;;
21941;SDS011;11135;54.192;15.670;2023-07-29T18:03:23;5.65;;;3.80;;
21941;SDS011;11135;54.192;15.670;2023-07-29T18:06:31;6.80;;;3.75;;
21941;SDS011;11135;54.192;15.670;2023-07-29T18:09:44;6.93;;;3.83;;
21941;SDS011;11135;54.192;15.670;2023-07-29T18:12:51;6.22;;;3.45;;
21941;SDS011;11135;54.192;15.670;2023-07-29T18:15:56;6.10;;;3.83;;
21941;SDS011;11135;54.192;15.670;2023-07-29T18:19:02;5.43;;;3.30;;
21941;SDS011;11135;54.192;15.670;2023-07-29T18:22:10;6.68;;;4.20;;
21941;SDS011;11135;54.192;15.670;2023-07-29T18:25:15;8.93;;;3.90;;
21941;SDS011;11135;54.192;15.670;2023-07-29T18:28:20;7.25;;;4.13;;
21941;SDS011;11135;54.192;15.670;2023-07-29T18:31:30;5.10;;;3.65;;
21941;SDS011;11135;54.192;15.670;2023-07-29T18:34:38;5.43;;;3.80;;
21941;SDS011;11135;54.192;15.670;2023-07-29T18:37:48;6.30;;;3.85;;
21941;SDS011;11135;54.192;15.670;2023-07-29T18:41:00;7.10;;;3.83;;